sensor_id;sensor_type;location;lat;lon;timestamp;temperature;humidity
37844;DHT22;63793;57.632;18.292;2023-05-28T00:00:01;11.60;99.90
37844;DHT22;63793;57.632;18.292;2023-05-28T00:02:38;11.60;99.90
37844;DHT22;63793;57.632;18.292;2023-05-28T00:05:07;11.60;99.90
37844;DHT22;63793;57.632;18.292;2023-05-28T00:07:34;11.60;99.90
37844;DHT22;63793;57.632;18.292;2023-05-28T00:10:01;11.60;99.90
37844;DHT22;63793;57.632;18.292;2023-05-28T00:12:28;11.60;99.90
37844;DHT22;63793;57.632;18.292;2023-05-28T00:14:55;11.50;99.90
37844;DHT22;63793;57.632;18.292;2023-05-28T00:17:22;11.50;99.90
37844;DHT22;63793;57.632;18.292;2023-05-28T00:19:49;11.50;99.90
37844;DHT22;63793;57.632;18.292;2023-05-28T00:22:16;11.60;99.90
37844;DHT22;63793;57.632;18.292;2023-05-28T00:24:43;11.50;99.90
37844;DHT22;63793;57.632;18.292;2023-05-28T00:27:10;11.50;99.90
37844;DHT22;63793;57.632;18.292;2023-05-28T00:29:37;11.50;99.90
37844;DHT22;63793;57.632;18.292;2023-05-28T00:32:04;11.50;99.90
37844;DHT22;63793;57.632;18.292;2023-05-28T00:34:31;11.50;99.90
37844;DHT22;63793;57.632;18.292;2023-05-28T00:36:58;11.50;99.90
37844;DHT22;63793;57.632;18.292;2023-05-28T00:39:25;11.50;99.90
37844;DHT22;63793;57.632;18.292;2023-05-28T00:42:02;11.50;99.90
37844;DHT22;63793;57.632;18.292;2023-05-28T00:44:30;11.50;99.90
37844;DHT22;63793;57.632;18.292;2023-05-28T00:46:59;11.50;99.90
37844;DHT22;63793;57.632;18.292;2023-05-28T00:49:27;11.50;99.90
37844;DHT22;63793;57.632;18.292;2023-05-28T00:51:55;11.40;99.90
37844;DHT22;63793;57.632;18.292;2023-05-28T00:54:26;11.40;99.90
37844;DHT22;63793;57.632;18.292;2023-05-28T00:56:53;11.40;99.90
37844;DHT22;63793;57.632;18.292;2023-05-28T00:59:21;11.40;99.90
37844;DHT22;63793;57.632;18.292;2023-05-28T01:01:51;11.40;99.90
37844;DHT22;63793;57.632;18.292;2023-05-28T01:04:18;11.40;99.90
37844;DHT22;63793;57.632;18.292;2023-05-28T01:06:45;11.40;99.90
37844;DHT22;63793;57.632;18.292;2023-05-28T01:09:13;11.40;99.90
37844;DHT22;63793;57.632;18.292;2023-05-28T01:11:42;11.40;99.90
37844;DHT22;63793;57.632;18.292;2023-05-28T01:14:13;11.40;99.90
37844;DHT22;63793;57.632;18.292;2023-05-28T01:16:41;11.40;99.90
37844;DHT22;63793;57.632;18.292;2023-05-28T01:19:08;11.40;99.90
37844;DHT22;63793;57.632;18.292;2023-05-28T01:21:41;11.30;99.90
37844;DHT22;63793;57.632;18.292;2023-05-28T01:24:09;11.30;99.90
37844;DHT22;63793;57.632;18.292;2023-05-28T01:26:37;11.30;99.90
37844;DHT22;63793;57.632;18.292;2023-05-28T01:29:17;11.30;99.90
37844;DHT22;63793;57.632;18.292;2023-05-28T01:31:45;11.20;99.90
37844;DHT22;63793;57.632;18.292;2023-05-28T01:34:12;11.30;99.90
37844;DHT22;63793;57.632;18.292;2023-05-28T01:36:55;11.20;99.90
37844;DHT22;63793;57.632;18.292;2023-05-28T01:39:26;11.20;99.90
37844;DHT22;63793;57.632;18.292;2023-05-28T01:41:54;11.20;99.90
37844;DHT22;63793;57.632;18.292;2023-05-28T01:44:23;11.10;99.90
37844;DHT22;63793;57.632;18.292;2023-05-28T01:46:51;11.10;99.90
37844;DHT22;63793;57.632;18.292;2023-05-28T01:49:22;11.10;99.90
37844;DHT22;63793;57.632;18.292;2023-05-28T01:51:50;11.00;99.90
37844;DHT22;63793;57.632;18.292;2023-05-28T01:54:18;11.00;99.90
37844;DHT22;63793;57.632;18.292;2023-05-28T01:56:47;11.00;99.90
37844;DHT22;63793;57.632;18.292;2023-05-28T01:59:14;10.90;99.90
37844;DHT22;63793;57.632;18.292;2023-05-28T02:01:41;11.00;99.90
37844;DHT22;63793;57.632;18.292;2023-05-28T02:04:11;11.00;99.90
37844;DHT22;63793;57.632;18.292;2023-05-28T02:06:38;10.90;99.90
37844;DHT22;63793;57.632;18.292;2023-05-28T02:09:07;10.90;99.90
37844;DHT22;63793;57.632;18.292;2023-05-28T02:11:34;10.90;99.90
37844;DHT22;63793;57.632;18.292;2023-05-28T02:14:01;10.80;99.90
37844;DHT22;63793;57.632;18.292;2023-05-28T02:16:28;10.80;99.90
37844;DHT22;63793;57.632;18.292;2023-05-28T02:18:56;10.80;99.90
37844;DHT22;63793;57.632;18.292;2023-05-28T02:21:25;10.80;99.90
37844;DHT22;63793;57.632;18.292;2023-05-28T02:23:52;10.80;99.90
37844;DHT22;63793;57.632;18.292;2023-05-28T02:26:20;10.80;99.90
37844;DHT22;63793;57.632;18.292;2023-05-28T02:28:47;10.80;99.90
37844;DHT22;63793;57.632;18.292;2023-05-28T02:31:15;10.80;99.90
37844;DHT22;63793;57.632;18.292;2023-05-28T02:33:44;10.80;99.90
37844;DHT22;63793;57.632;18.292;2023-05-28T02:36:14;10.80;99.90
37844;DHT22;63793;57.632;18.292;2023-05-28T02:38:42;10.80;99.90
37844;DHT22;63793;57.632;18.292;2023-05-28T02:41:10;10.80;99.90
37844;DHT22;63793;57.632;18.292;2023-05-28T02:43:41;10.80;99.90
37844;DHT22;63793;57.632;18.292;2023-05-28T02:46:09;10.80;99.90
37844;DHT22;63793;57.632;18.292;2023-05-28T02:48:37;10.80;99.90
37844;DHT22;63793;57.632;18.292;2023-05-28T02:51:05;10.80;99.90
37844;DHT22;63793;57.632;18.292;2023-05-28T02:54:04;10.80;99.90
37844;DHT22;63793;57.632;18.292;2023-05-28T02:56:33;10.80;99.90
37844;DHT22;63793;57.632;18.292;2023-05-28T02:59:00;10.80;99.90
37844;DHT22;63793;57.632;18.292;2023-05-28T03:01:27;10.80;99.90
37844;DHT22;63793;57.632;18.292;2023-05-28T03:03:55;10.80;99.90
37844;DHT22;63793;57.632;18.292;2023-05-28T03:06:22;10.80;99.90
37844;DHT22;63793;57.632;18.292;2023-05-28T03:08:53;10.80;99.90
37844;DHT22;63793;57.632;18.292;2023-05-28T03:11:21;10.80;99.90
37844;DHT22;63793;57.632;18.292;2023-05-28T03:13:49;10.80;99.90
37844;DHT22;63793;57.632;18.292;2023-05-28T03:16:16;10.80;99.90
37844;DHT22;63793;57.632;18.292;2023-05-28T03:18:44;10.90;99.90
37844;DHT22;63793;57.632;18.292;2023-05-28T03:21:11;10.80;99.90
37844;DHT22;63793;57.632;18.292;2023-05-28T03:23:38;10.90;99.90
37844;DHT22;63793;57.632;18.292;2023-05-28T03:26:26;10.80;99.90
37844;DHT22;63793;57.632;18.292;2023-05-28T03:28:54;10.90;99.90
37844;DHT22;63793;57.632;18.292;2023-05-28T03:31:29;10.90;99.90
37844;DHT22;63793;57.632;18.292;2023-05-28T03:34:00;10.90;99.90
37844;DHT22;63793;57.632;18.292;2023-05-28T03:36:27;10.90;99.90
37844;DHT22;63793;57.632;18.292;2023-05-28T03:38:55;10.90;99.90
37844;DHT22;63793;57.632;18.292;2023-05-28T03:41:25;10.90;99.90
37844;DHT22;63793;57.632;18.292;2023-05-28T03:43:53;11.00;99.90
37844;DHT22;63793;57.632;18.292;2023-05-28T03:46:20;11.00;99.90
37844;DHT22;63793;57.632;18.292;2023-05-28T03:48:47;11.00;99.90
37844;DHT22;63793;57.632;18.292;2023-05-28T03:51:14;11.00;99.90
37844;DHT22;63793;57.632;18.292;2023-05-28T03:53:41;11.00;99.90
37844;DHT22;63793;57.632;18.292;2023-05-28T03:56:08;11.10;99.90
37844;DHT22;63793;57.632;18.292;2023-05-28T03:58:35;11.10;99.90
37844;DHT22;63793;57.632;18.292;2023-05-28T04:01:02;11.10;99.90
37844;DHT22;63793;57.632;18.292;2023-05-28T04:03:29;11.10;99.90
37844;DHT22;63793;57.632;18.292;2023-05-28T04:05:56;11.20;99.90
37844;DHT22;63793;57.632;18.292;2023-05-28T04:08:23;11.20;99.90
37844;DHT22;63793;57.632;18.292;2023-05-28T04:10:50;11.20;99.90
37844;DHT22;63793;57.632;18.292;2023-05-28T04:13:17;11.30;99.90
37844;DHT22;63793;57.632;18.292;2023-05-28T04:15:44;11.30;99.90
37844;DHT22;63793;57.632;18.292;2023-05-28T04:18:11;11.30;99.90
37844;DHT22;63793;57.632;18.292;2023-05-28T04:20:38;11.40;99.90
37844;DHT22;63793;57.632;18.292;2023-05-28T04:23:05;11.50;99.90
37844;DHT22;63793;57.632;18.292;2023-05-28T04:25:33;11.50;99.90
37844;DHT22;63793;57.632;18.292;2023-05-28T04:27:59;11.50;99.90
37844;DHT22;63793;57.632;18.292;2023-05-28T04:30:29;11.50;99.90
37844;DHT22;63793;57.632;18.292;2023-05-28T04:32:57;11.60;99.90
37844;DHT22;63793;57.632;18.292;2023-05-28T04:35:24;11.60;99.90
37844;DHT22;63793;57.632;18.292;2023-05-28T04:37:53;11.70;99.90
37844;DHT22;63793;57.632;18.292;2023-05-28T04:40:20;11.70;99.90
37844;DHT22;63793;57.632;18.292;2023-05-28T04:42:48;11.80;99.90
37844;DHT22;63793;57.632;18.292;2023-05-28T04:45:15;11.80;99.90
37844;DHT22;63793;57.632;18.292;2023-05-28T04:47:45;11.80;99.90
37844;DHT22;63793;57.632;18.292;2023-05-28T04:50:12;11.90;99.90
37844;DHT22;63793;57.632;18.292;2023-05-28T04:52:39;12.00;99.90
37844;DHT22;63793;57.632;18.292;2023-05-28T04:55:06;12.00;99.90
37844;DHT22;63793;57.632;18.292;2023-05-28T04:57:33;12.10;99.90
37844;DHT22;63793;57.632;18.292;2023-05-28T05:00:01;12.10;99.90
37844;DHT22;63793;57.632;18.292;2023-05-28T05:02:29;12.20;99.90
37844;DHT22;63793;57.632;18.292;2023-05-28T05:04:56;12.30;99.90
37844;DHT22;63793;57.632;18.292;2023-05-28T05:07:24;12.40;99.90
37844;DHT22;63793;57.632;18.292;2023-05-28T05:09:51;12.40;99.90
37844;DHT22;63793;57.632;18.292;2023-05-28T05:12:18;12.50;99.90
37844;DHT22;63793;57.632;18.292;2023-05-28T05:14:45;12.60;99.90
37844;DHT22;63793;57.632;18.292;2023-05-28T05:17:12;12.70;99.90
37844;DHT22;63793;57.632;18.292;2023-05-28T05:19:39;12.80;99.90
37844;DHT22;63793;57.632;18.292;2023-05-28T05:22:07;12.90;99.90
37844;DHT22;63793;57.632;18.292;2023-05-28T05:24:35;13.00;99.90
37844;DHT22;63793;57.632;18.292;2023-05-28T05:27:02;13.10;99.90
37844;DHT22;63793;57.632;18.292;2023-05-28T05:29:29;13.20;99.90
37844;DHT22;63793;57.632;18.292;2023-05-28T05:31:57;13.30;99.90
37844;DHT22;63793;57.632;18.292;2023-05-28T05:34:25;13.40;99.90
37844;DHT22;63793;57.632;18.292;2023-05-28T05:37:20;13.50;99.90
37844;DHT22;63793;57.632;18.292;2023-05-28T05:40:07;13.50;99.90
37844;DHT22;63793;57.632;18.292;2023-05-28T05:43:02;13.60;99.90
37844;DHT22;63793;57.632;18.292;2023-05-28T05:45:28;13.60;99.90
37844;DHT22;63793;57.632;18.292;2023-05-28T05:47:56;13.70;99.90
37844;DHT22;63793;57.632;18.292;2023-05-28T05:50:23;13.90;99.90
37844;DHT22;63793;57.632;18.292;2023-05-28T05:52:50;14.00;99.90
37844;DHT22;63793;57.632;18.292;2023-05-28T05:55:17;14.10;99.90
37844;DHT22;63793;57.632;18.292;2023-05-28T05:57:44;14.20;99.90
37844;DHT22;63793;57.632;18.292;2023-05-28T06:00:12;14.30;99.90
37844;DHT22;63793;57.632;18.292;2023-05-28T06:02:39;14.40;99.90
37844;DHT22;63793;57.632;18.292;2023-05-28T06:05:27;14.50;99.90
37844;DHT22;63793;57.632;18.292;2023-05-28T06:08:24;14.70;99.90
37844;DHT22;63793;57.632;18.292;2023-05-28T06:10:58;14.70;99.90
37844;DHT22;63793;57.632;18.292;2023-05-28T06:13:25;14.80;99.90
37844;DHT22;63793;57.632;18.292;2023-05-28T06:15:52;14.80;99.90
37844;DHT22;63793;57.632;18.292;2023-05-28T06:18:20;14.90;99.90
37844;DHT22;63793;57.632;18.292;2023-05-28T06:20:48;15.00;99.90
37844;DHT22;63793;57.632;18.292;2023-05-28T06:23:17;15.00;99.90
37844;DHT22;63793;57.632;18.292;2023-05-28T06:25:44;15.00;99.90
37844;DHT22;63793;57.632;18.292;2023-05-28T06:28:11;15.00;99.90
37844;DHT22;63793;57.632;18.292;2023-05-28T06:30:38;15.00;99.90
37844;DHT22;63793;57.632;18.292;2023-05-28T06:33:07;14.90;99.90
37844;DHT22;63793;57.632;18.292;2023-05-28T06:35:35;15.00;99.90
37844;DHT22;63793;57.632;18.292;2023-05-28T06:38:03;15.00;99.90
37844;DHT22;63793;57.632;18.292;2023-05-28T06:40:30;15.00;99.90
37844;DHT22;63793;57.632;18.292;2023-05-28T06:42:57;15.10;99.90
37844;DHT22;63793;57.632;18.292;2023-05-28T06:45:43;15.30;99.90
37844;DHT22;63793;57.632;18.292;2023-05-28T06:48:12;15.20;99.90
37844;DHT22;63793;57.632;18.292;2023-05-28T06:50:39;15.20;99.90
37844;DHT22;63793;57.632;18.292;2023-05-28T06:53:06;15.30;99.90
37844;DHT22;63793;57.632;18.292;2023-05-28T06:55:34;15.40;99.90
37844;DHT22;63793;57.632;18.292;2023-05-28T06:58:19;15.50;99.90
37844;DHT22;63793;57.632;18.292;2023-05-28T07:01:05;15.40;99.90
37844;DHT22;63793;57.632;18.292;2023-05-28T07:03:55;15.40;99.90
37844;DHT22;63793;57.632;18.292;2023-05-28T07:06:35;15.50;99.90
37844;DHT22;63793;57.632;18.292;2023-05-28T07:09:03;15.30;99.90
37844;DHT22;63793;57.632;18.292;2023-05-28T07:11:31;15.10;99.90
37844;DHT22;63793;57.632;18.292;2023-05-28T07:13:57;14.90;99.90
37844;DHT22;63793;57.632;18.292;2023-05-28T07:16:25;14.80;99.90
37844;DHT22;63793;57.632;18.292;2023-05-28T07:18:52;14.80;99.90
37844;DHT22;63793;57.632;18.292;2023-05-28T07:21:20;14.70;99.90
37844;DHT22;63793;57.632;18.292;2023-05-28T07:23:47;14.60;99.90
37844;DHT22;63793;57.632;18.292;2023-05-28T07:26:14;14.60;99.90
37844;DHT22;63793;57.632;18.292;2023-05-28T07:28:41;14.40;99.90
37844;DHT22;63793;57.632;18.292;2023-05-28T07:31:08;14.20;99.90
37844;DHT22;63793;57.632;18.292;2023-05-28T07:33:35;14.20;99.90
37844;DHT22;63793;57.632;18.292;2023-05-28T07:36:03;14.30;99.90
37844;DHT22;63793;57.632;18.292;2023-05-28T07:38:32;14.40;99.90
37844;DHT22;63793;57.632;18.292;2023-05-28T07:41:00;14.40;99.90
37844;DHT22;63793;57.632;18.292;2023-05-28T07:43:32;14.60;99.90
37844;DHT22;63793;57.632;18.292;2023-05-28T07:46:04;14.70;99.90
37844;DHT22;63793;57.632;18.292;2023-05-28T07:48:43;14.60;99.90
37844;DHT22;63793;57.632;18.292;2023-05-28T07:51:19;14.70;99.90
37844;DHT22;63793;57.632;18.292;2023-05-28T07:53:58;14.80;99.90
37844;DHT22;63793;57.632;18.292;2023-05-28T07:56:25;14.80;99.90
37844;DHT22;63793;57.632;18.292;2023-05-28T07:58:53;14.90;99.90
37844;DHT22;63793;57.632;18.292;2023-05-28T08:01:20;15.00;99.90
37844;DHT22;63793;57.632;18.292;2023-05-28T08:03:47;15.10;99.90
37844;DHT22;63793;57.632;18.292;2023-05-28T08:06:21;15.20;99.90
37844;DHT22;63793;57.632;18.292;2023-05-28T08:08:48;15.40;99.90
37844;DHT22;63793;57.632;18.292;2023-05-28T08:11:16;15.50;99.90
37844;DHT22;63793;57.632;18.292;2023-05-28T08:13:43;15.50;99.90
37844;DHT22;63793;57.632;18.292;2023-05-28T08:16:10;15.70;99.90
37844;DHT22;63793;57.632;18.292;2023-05-28T08:18:59;15.80;99.90
37844;DHT22;63793;57.632;18.292;2023-05-28T08:21:27;15.90;99.90
37844;DHT22;63793;57.632;18.292;2023-05-28T08:23:57;15.90;99.90
37844;DHT22;63793;57.632;18.292;2023-05-28T08:26:24;16.00;99.90
37844;DHT22;63793;57.632;18.292;2023-05-28T08:28:51;16.10;99.90
37844;DHT22;63793;57.632;18.292;2023-05-28T08:31:18;16.10;99.90
37844;DHT22;63793;57.632;18.292;2023-05-28T08:33:54;16.20;99.90
37844;DHT22;63793;57.632;18.292;2023-05-28T08:36:22;16.10;99.90
37844;DHT22;63793;57.632;18.292;2023-05-28T08:38:53;16.20;99.90
37844;DHT22;63793;57.632;18.292;2023-05-28T08:41:20;16.20;99.90
37844;DHT22;63793;57.632;18.292;2023-05-28T08:43:50;16.10;99.90
37844;DHT22;63793;57.632;18.292;2023-05-28T08:46:18;16.10;99.90
37844;DHT22;63793;57.632;18.292;2023-05-28T08:49:17;16.10;99.90
37844;DHT22;63793;57.632;18.292;2023-05-28T08:51:48;16.10;99.90
37844;DHT22;63793;57.632;18.292;2023-05-28T08:54:22;16.30;99.90
37844;DHT22;63793;57.632;18.292;2023-05-28T08:56:51;16.50;99.90
37844;DHT22;63793;57.632;18.292;2023-05-28T08:59:19;16.50;99.90
37844;DHT22;63793;57.632;18.292;2023-05-28T09:01:48;16.70;99.90
37844;DHT22;63793;57.632;18.292;2023-05-28T09:04:19;16.90;99.90
37844;DHT22;63793;57.632;18.292;2023-05-28T09:06:48;17.00;99.90
37844;DHT22;63793;57.632;18.292;2023-05-28T09:09:24;17.20;99.90
37844;DHT22;63793;57.632;18.292;2023-05-28T09:12:04;17.30;99.90
37844;DHT22;63793;57.632;18.292;2023-05-28T09:14:38;17.10;99.90
37844;DHT22;63793;57.632;18.292;2023-05-28T09:17:09;17.00;99.90
37844;DHT22;63793;57.632;18.292;2023-05-28T09:19:50;16.90;99.90
37844;DHT22;63793;57.632;18.292;2023-05-28T09:22:19;16.80;99.90
37844;DHT22;63793;57.632;18.292;2023-05-28T09:25:00;16.70;99.90
37844;DHT22;63793;57.632;18.292;2023-05-28T09:27:36;16.70;99.90
37844;DHT22;63793;57.632;18.292;2023-05-28T09:30:12;17.00;99.90
37844;DHT22;63793;57.632;18.292;2023-05-28T09:32:39;17.00;99.90
37844;DHT22;63793;57.632;18.292;2023-05-28T09:35:08;17.10;99.90
37844;DHT22;63793;57.632;18.292;2023-05-28T09:37:35;17.30;99.90
37844;DHT22;63793;57.632;18.292;2023-05-28T09:40:07;17.10;99.90
37844;DHT22;63793;57.632;18.292;2023-05-28T09:42:40;17.00;99.90
37844;DHT22;63793;57.632;18.292;2023-05-28T09:45:11;16.90;99.90
37844;DHT22;63793;57.632;18.292;2023-05-28T09:47:42;16.90;99.90
37844;DHT22;63793;57.632;18.292;2023-05-28T09:50:11;16.70;99.90
37844;DHT22;63793;57.632;18.292;2023-05-28T09:52:38;16.50;99.90
37844;DHT22;63793;57.632;18.292;2023-05-28T09:55:08;16.70;99.90
37844;DHT22;63793;57.632;18.292;2023-05-28T09:57:41;16.80;99.90
37844;DHT22;63793;57.632;18.292;2023-05-28T10:00:17;17.00;99.90
37844;DHT22;63793;57.632;18.292;2023-05-28T10:02:56;17.10;99.90
37844;DHT22;63793;57.632;18.292;2023-05-28T10:05:28;17.40;99.90
37844;DHT22;63793;57.632;18.292;2023-05-28T10:08:00;17.50;99.90
37844;DHT22;63793;57.632;18.292;2023-05-28T10:10:28;17.50;99.90
37844;DHT22;63793;57.632;18.292;2023-05-28T10:12:56;17.70;99.90
37844;DHT22;63793;57.632;18.292;2023-05-28T10:15:24;17.70;99.90
37844;DHT22;63793;57.632;18.292;2023-05-28T10:17:52;17.70;99.90
37844;DHT22;63793;57.632;18.292;2023-05-28T10:20:19;17.70;99.90
37844;DHT22;63793;57.632;18.292;2023-05-28T10:22:47;17.60;99.90
37844;DHT22;63793;57.632;18.292;2023-05-28T10:25:15;17.50;99.90
37844;DHT22;63793;57.632;18.292;2023-05-28T10:27:44;17.40;99.90
37844;DHT22;63793;57.632;18.292;2023-05-28T10:30:12;17.30;99.90
37844;DHT22;63793;57.632;18.292;2023-05-28T10:32:40;17.30;99.90
37844;DHT22;63793;57.632;18.292;2023-05-28T10:35:11;17.20;99.90
37844;DHT22;63793;57.632;18.292;2023-05-28T10:37:39;17.20;99.90
37844;DHT22;63793;57.632;18.292;2023-05-28T10:40:08;17.00;99.90
37844;DHT22;63793;57.632;18.292;2023-05-28T10:42:40;17.10;99.90
37844;DHT22;63793;57.632;18.292;2023-05-28T10:45:09;17.20;99.90
37844;DHT22;63793;57.632;18.292;2023-05-28T10:47:41;17.30;99.90
37844;DHT22;63793;57.632;18.292;2023-05-28T10:53:06;17.60;99.90
37844;DHT22;63793;57.632;18.292;2023-05-28T10:55:53;17.80;99.90
37844;DHT22;63793;57.632;18.292;2023-05-28T10:58:32;17.80;99.90
37844;DHT22;63793;57.632;18.292;2023-05-28T11:03:42;17.80;99.90
37844;DHT22;63793;57.632;18.292;2023-05-28T11:06:11;17.80;99.90
37844;DHT22;63793;57.632;18.292;2023-05-28T11:08:44;17.70;99.90
37844;DHT22;63793;57.632;18.292;2023-05-28T11:11:13;17.70;99.90
37844;DHT22;63793;57.632;18.292;2023-05-28T11:13:44;17.90;99.90
37844;DHT22;63793;57.632;18.292;2023-05-28T11:16:14;18.00;99.90
37844;DHT22;63793;57.632;18.292;2023-05-28T11:19:03;18.10;99.90
37844;DHT22;63793;57.632;18.292;2023-05-28T11:21:30;18.20;99.90
37844;DHT22;63793;57.632;18.292;2023-05-28T11:24:04;18.30;99.90
37844;DHT22;63793;57.632;18.292;2023-05-28T11:26:31;18.20;99.90
37844;DHT22;63793;57.632;18.292;2023-05-28T11:29:00;18.20;99.80
37844;DHT22;63793;57.632;18.292;2023-05-28T11:31:28;18.20;98.90
37844;DHT22;63793;57.632;18.292;2023-05-28T11:33:55;18.20;99.30
37844;DHT22;63793;57.632;18.292;2023-05-28T11:36:23;18.10;99.90
37844;DHT22;63793;57.632;18.292;2023-05-28T11:39:03;18.20;99.90
37844;DHT22;63793;57.632;18.292;2023-05-28T11:41:30;18.30;99.70
37844;DHT22;63793;57.632;18.292;2023-05-28T11:43:57;18.40;99.90
37844;DHT22;63793;57.632;18.292;2023-05-28T11:46:24;18.40;99.80
37844;DHT22;63793;57.632;18.292;2023-05-28T11:48:51;18.50;99.90
37844;DHT22;63793;57.632;18.292;2023-05-28T11:51:19;18.60;99.60
37844;DHT22;63793;57.632;18.292;2023-05-28T11:53:47;18.50;99.20
37844;DHT22;63793;57.632;18.292;2023-05-28T11:56:14;18.50;99.30
37844;DHT22;63793;57.632;18.292;2023-05-28T11:58:45;18.40;99.80
37844;DHT22;63793;57.632;18.292;2023-05-28T12:01:16;18.30;99.90
37844;DHT22;63793;57.632;18.292;2023-05-28T12:03:43;18.40;99.90
37844;DHT22;63793;57.632;18.292;2023-05-28T12:06:11;18.50;99.90
37844;DHT22;63793;57.632;18.292;2023-05-28T12:08:45;18.60;99.90
37844;DHT22;63793;57.632;18.292;2023-05-28T12:11:12;18.80;99.90
37844;DHT22;63793;57.632;18.292;2023-05-28T12:13:39;18.90;99.50
37844;DHT22;63793;57.632;18.292;2023-05-28T12:16:07;18.90;99.60
37844;DHT22;63793;57.632;18.292;2023-05-28T12:18:34;19.00;99.40
37844;DHT22;63793;57.632;18.292;2023-05-28T12:21:05;19.00;99.80
37844;DHT22;63793;57.632;18.292;2023-05-28T12:23:36;19.10;99.20
37844;DHT22;63793;57.632;18.292;2023-05-28T12:26:03;19.10;98.50
37844;DHT22;63793;57.632;18.292;2023-05-28T12:28:30;19.10;99.10
37844;DHT22;63793;57.632;18.292;2023-05-28T12:30:58;19.20;98.40
37844;DHT22;63793;57.632;18.292;2023-05-28T12:33:25;19.20;98.10
37844;DHT22;63793;57.632;18.292;2023-05-28T12:35:52;19.10;98.20
37844;DHT22;63793;57.632;18.292;2023-05-28T12:38:19;19.10;97.20
37844;DHT22;63793;57.632;18.292;2023-05-28T12:40:49;19.10;96.80
37844;DHT22;63793;57.632;18.292;2023-05-28T12:43:16;19.20;97.20
37844;DHT22;63793;57.632;18.292;2023-05-28T12:45:43;19.40;97.10
37844;DHT22;63793;57.632;18.292;2023-05-28T12:48:10;19.60;95.80
37844;DHT22;63793;57.632;18.292;2023-05-28T12:50:37;19.70;95.50
37844;DHT22;63793;57.632;18.292;2023-05-28T12:53:04;19.70;95.70
37844;DHT22;63793;57.632;18.292;2023-05-28T12:55:34;20.10;95.00
37844;DHT22;63793;57.632;18.292;2023-05-28T12:58:01;20.20;95.30
37844;DHT22;63793;57.632;18.292;2023-05-28T13:00:28;20.00;94.00
37844;DHT22;63793;57.632;18.292;2023-05-28T13:02:55;20.00;93.90
37844;DHT22;63793;57.632;18.292;2023-05-28T13:05:22;20.10;93.20
37844;DHT22;63793;57.632;18.292;2023-05-28T13:07:49;20.10;93.80
37844;DHT22;63793;57.632;18.292;2023-05-28T13:10:16;20.10;93.30
37844;DHT22;63793;57.632;18.292;2023-05-28T13:12:43;19.90;94.00
37844;DHT22;63793;57.632;18.292;2023-05-28T13:15:10;19.90;94.10
37844;DHT22;63793;57.632;18.292;2023-05-28T13:17:37;19.80;94.30
37844;DHT22;63793;57.632;18.292;2023-05-28T13:20:05;19.90;94.40
37844;DHT22;63793;57.632;18.292;2023-05-28T13:22:35;20.00;94.50
37844;DHT22;63793;57.632;18.292;2023-05-28T13:25:04;20.10;94.80
37844;DHT22;63793;57.632;18.292;2023-05-28T13:27:31;20.20;94.40
37844;DHT22;63793;57.632;18.292;2023-05-28T13:29:58;20.10;94.20
37844;DHT22;63793;57.632;18.292;2023-05-28T13:32:25;20.20;94.30
37844;DHT22;63793;57.632;18.292;2023-05-28T13:34:53;20.30;94.00
37844;DHT22;63793;57.632;18.292;2023-05-28T13:37:20;20.40;93.20
37844;DHT22;63793;57.632;18.292;2023-05-28T13:39:47;20.50;92.30
37844;DHT22;63793;57.632;18.292;2023-05-28T13:42:14;20.50;91.60
37844;DHT22;63793;57.632;18.292;2023-05-28T13:44:47;20.60;91.20
37844;DHT22;63793;57.632;18.292;2023-05-28T13:47:15;20.60;91.90
37844;DHT22;63793;57.632;18.292;2023-05-28T13:49:42;20.70;91.00
37844;DHT22;63793;57.632;18.292;2023-05-28T13:52:09;20.70;90.60
37844;DHT22;63793;57.632;18.292;2023-05-28T13:54:36;20.50;91.00
37844;DHT22;63793;57.632;18.292;2023-05-28T13:57:04;20.70;91.80
37844;DHT22;63793;57.632;18.292;2023-05-28T13:59:32;20.60;91.10
37844;DHT22;63793;57.632;18.292;2023-05-28T14:01:59;20.90;92.00
37844;DHT22;63793;57.632;18.292;2023-05-28T14:04:26;21.10;91.70
37844;DHT22;63793;57.632;18.292;2023-05-28T14:06:53;21.10;90.80
37844;DHT22;63793;57.632;18.292;2023-05-28T14:09:20;20.90;90.90
37844;DHT22;63793;57.632;18.292;2023-05-28T14:11:47;21.10;90.40
37844;DHT22;63793;57.632;18.292;2023-05-28T14:14:34;21.10;89.20
37844;DHT22;63793;57.632;18.292;2023-05-28T14:17:01;21.10;88.00
37844;DHT22;63793;57.632;18.292;2023-05-28T14:19:29;21.20;87.90
37844;DHT22;63793;57.632;18.292;2023-05-28T14:21:56;21.30;87.40
37844;DHT22;63793;57.632;18.292;2023-05-28T14:24:23;21.30;87.80
37844;DHT22;63793;57.632;18.292;2023-05-28T14:26:50;21.40;87.40
37844;DHT22;63793;57.632;18.292;2023-05-28T14:29:16;21.30;87.10
37844;DHT22;63793;57.632;18.292;2023-05-28T14:31:43;21.40;85.30
37844;DHT22;63793;57.632;18.292;2023-05-28T14:34:11;21.40;87.20
37844;DHT22;63793;57.632;18.292;2023-05-28T14:36:38;21.50;88.30
37844;DHT22;63793;57.632;18.292;2023-05-28T14:39:05;21.60;87.60
37844;DHT22;63793;57.632;18.292;2023-05-28T14:41:32;21.80;87.00
37844;DHT22;63793;57.632;18.292;2023-05-28T14:43:58;21.80;85.00
37844;DHT22;63793;57.632;18.292;2023-05-28T14:46:25;21.80;86.00
37844;DHT22;63793;57.632;18.292;2023-05-28T14:48:52;21.90;85.10
37844;DHT22;63793;57.632;18.292;2023-05-28T14:51:19;21.90;86.00
37844;DHT22;63793;57.632;18.292;2023-05-28T14:53:46;21.90;85.80
37844;DHT22;63793;57.632;18.292;2023-05-28T14:56:13;21.90;84.70
37844;DHT22;63793;57.632;18.292;2023-05-28T14:58:40;21.80;86.00
37844;DHT22;63793;57.632;18.292;2023-05-28T15:01:07;22.20;86.10
37844;DHT22;63793;57.632;18.292;2023-05-28T15:03:34;22.30;84.70
37844;DHT22;63793;57.632;18.292;2023-05-28T15:06:01;22.20;84.60
37844;DHT22;63793;57.632;18.292;2023-05-28T15:08:28;22.10;85.90
37844;DHT22;63793;57.632;18.292;2023-05-28T15:10:55;22.30;83.30
37844;DHT22;63793;57.632;18.292;2023-05-28T15:13:23;22.30;84.10
37844;DHT22;63793;57.632;18.292;2023-05-28T15:15:50;22.50;84.40
37844;DHT22;63793;57.632;18.292;2023-05-28T15:18:17;22.60;84.20
37844;DHT22;63793;57.632;18.292;2023-05-28T15:20:44;22.70;83.40
37844;DHT22;63793;57.632;18.292;2023-05-28T15:23:12;22.70;81.90
37844;DHT22;63793;57.632;18.292;2023-05-28T15:25:39;22.90;81.40
37844;DHT22;63793;57.632;18.292;2023-05-28T15:28:06;22.70;81.40
37844;DHT22;63793;57.632;18.292;2023-05-28T15:30:34;22.80;82.60
37844;DHT22;63793;57.632;18.292;2023-05-28T15:33:03;22.50;82.60